Time;durP1;ratioP1;P1;durP2;ratioP2;P2;SDS_P1;SDS_P2;PMS_P1;PMS_P2;Temp;Humidity;BMP_temperature;BMP_pressure;BME280_temperature;BME280_humidity;BME280_pressure;Samples;Min_cycle;Max_cycle;Signal;HPM_P1;HPM_P2
2022/05/04 00:02:20;;;;;;;9.93;6.73;;;11.20;99.90;;;;;;5013286;28;20174;-62
2022/05/04 00:04:46;;;;;;;8.30;5.77;;;11.20;99.90;;;;;;5013526;28;20183;-61
2022/05/04 00:07:11;;;;;;;7.77;5.77;;;11.20;99.90;;;;;;5013637;28;20673;-61
2022/05/04 00:09:37;;;;;;;6.40;5.67;;;11.20;99.90;;;;;;5013742;28;20174;-62
2022/05/04 00:12:03;;;;;;;5.87;5.27;;;11.10;99.90;;;;;;5013423;28;20222;-62
2022/05/04 00:14:29;;;;;;;6.80;6.10;;;11.10;99.90;;;;;;5013046;28;20194;-62
2022/05/04 00:16:55;;;;;;;8.50;5.90;;;11.10;99.90;;;;;;5013374;28;20449;-62
2022/05/04 00:19:20;;;;;;;5.77;5.23;;;11.10;99.90;;;;;;5013443;28;20233;-62
2022/05/04 00:21:46;;;;;;;6.53;5.87;;;11.10;99.90;;;;;;5013550;28;20187;-62
2022/05/04 00:24:12;;;;;;;4.77;4.27;;;11.10;99.90;;;;;;5013238;28;20194;-61
2022/05/04 00:26:37;;;;;;;5.30;4.83;;;11.10;99.90;;;;;;5009720;28;20231;-61
2022/05/04 00:29:03;;;;;;;6.40;5.47;;;11.10;99.90;;;;;;4993970;28;20222;-61
2022/05/04 00:31:28;;;;;;;5.27;4.57;;;11.10;99.90;;;;;;4993983;28;20181;-62
2022/05/04 00:33:54;;;;;;;5.20;4.17;;;11.00;99.90;;;;;;4993177;28;20191;-61
2022/05/04 00:36:20;;;;;;;4.77;4.37;;;11.00;99.90;;;;;;4993801;28;20187;-61
2022/05/04 00:38:45;;;;;;;5.97;5.37;;;11.00;99.90;;;;;;5006828;28;20174;-62
2022/05/04 00:41:11;;;;;;;4.83;4.20;;;10.90;99.90;;;;;;5012077;28;20224;-62
2022/05/04 00:43:37;;;;;;;4.87;4.37;;;10.90;99.90;;;;;;5013095;28;20285;-62
2022/05/04 00:46:03;;;;;;;6.37;5.73;;;10.90;99.90;;;;;;5013313;28;20198;-61
2022/05/04 00:48:28;;;;;;;5.67;5.07;;;10.90;99.90;;;;;;5013479;28;20201;-61
2022/05/04 00:50:55;;;;;;;5.70;4.63;;;10.80;99.90;;;;;;5013495;28;20433;-61
2022/05/04 00:53:21;;;;;;;5.55;5.05;;;10.80;99.90;;;;;;5000780;28;20223;-61
2022/05/04 00:55:47;;;;;;;5.90;5.30;;;10.90;99.90;;;;;;4993598;28;20225;-61
2022/05/04 01:01:03;;;;;;;4.40;4.05;;;10.80;99.90;;;;;;4993871;28;20480;-61
2022/05/04 01:03:29;;;;;;;5.00;4.55;;;10.70;99.90;;;;;;4993225;28;20199;-61
2022/05/04 01:05:54;;;;;;;6.53;4.83;;;10.70;99.90;;;;;;4993342;28;20539;-61
2022/05/04 01:08:20;;;;;;;5.80;5.30;;;10.70;99.90;;;;;;5006961;28;20421;-61
2022/05/04 01:10:46;;;;;;;6.10;5.57;;;10.70;99.90;;;;;;5013283;28;20177;-61
2022/05/04 01:13:11;;;;;;;7.07;4.93;;;10.70;99.90;;;;;;5010822;28;20190;-61
2022/05/04 01:15:37;;;;;;;6.27;5.40;;;10.70;99.90;;;;;;5013812;28;20266;-61
2022/05/04 01:18:03;;;;;;;6.80;5.43;;;10.80;99.90;;;;;;5017019;28;20175;-62
2022/05/04 01:20:28;;;;;;;5.07;4.67;;;10.80;99.90;;;;;;5017394;28;20175;-61
2022/05/04 01:22:54;;;;;;;5.13;4.67;;;10.80;99.90;;;;;;5015021;28;20170;-61
2022/05/04 01:25:20;;;;;;;5.32;4.50;;;10.70;99.90;;;;;;5016809;28;20179;-61
2022/05/04 01:27:45;;;;;;;5.07;4.57;;;10.70;99.90;;;;;;5008409;28;20207;-61
2022/05/04 01:30:12;;;;;;;6.83;5.27;;;10.70;99.90;;;;;;4996685;28;20171;-61
2022/05/04 01:32:38;;;;;;;4.78;4.28;;;10.70;99.90;;;;;;4996498;28;20183;-61
2022/05/04 01:35:04;;;;;;;6.67;4.97;;;10.70;99.90;;;;;;4996661;28;20207;-61
2022/05/04 01:37:30;;;;;;;7.75;5.70;;;10.60;99.90;;;;;;4995500;28;20510;-61
2022/05/04 01:39:56;;;;;;;7.17;5.63;;;10.60;99.90;;;;;;4996905;28;20674;-62
2022/05/04 01:42:24;;;;;;;6.70;5.67;;;10.60;99.90;;;;;;4994869;28;20187;-61
2022/05/04 01:44:50;;;;;;;7.28;5.68;;;10.60;99.90;;;;;;4996537;28;20195;-61
2022/05/04 01:47:16;;;;;;;5.80;5.30;;;10.60;99.90;;;;;;4997127;28;20266;-60
2022/05/04 01:49:41;;;;;;;7.60;5.20;;;10.60;99.90;;;;;;4995288;28;20454;-62
2022/05/04 01:52:07;;;;;;;5.07;4.60;;;10.60;99.90;;;;;;4979222;28;20172;-62
2022/05/04 01:54:33;;;;;;;6.03;5.43;;;10.60;99.90;;;;;;4978563;28;20995;-61
2022/05/04 01:56:59;;;;;;;10.20;6.20;;;10.70;99.90;;;;;;5001222;28;20182;-61
2022/05/04 01:59:25;;;;;;;6.93;5.53;;;10.70;99.90;;;;;;5016134;28;20174;-62
2022/05/04 02:01:50;;;;;;;8.20;5.40;;;10.70;99.90;;;;;;5015754;28;20215;-62
2022/05/04 02:04:17;;;;;;;6.70;5.77;;;10.70;99.90;;;;;;5015628;28;20465;-62
2022/05/04 02:06:43;;;;;;;6.68;6.00;;;10.70;99.90;;;;;;5015968;28;20457;-62
2022/05/04 02:09:09;;;;;;;5.25;4.72;;;10.70;99.90;;;;;;5015894;28;20688;-63
2022/05/04 02:11:35;;;;;;;7.43;4.83;;;10.80;99.90;;;;;;5015195;28;20170;-61
2022/05/04 02:14:01;;;;;;;5.90;5.30;;;10.80;99.90;;;;;;5015255;28;20194;-62
2022/05/04 02:16:28;;;;;;;7.03;5.65;;;10.80;99.90;;;;;;5015746;28;20823;-61
2022/05/04 02:18:54;;;;;;;6.63;5.88;;;10.80;99.90;;;;;;5015878;28;20178;-62
2022/05/04 02:21:20;;;;;;;7.15;5.70;;;10.90;99.90;;;;;;5015624;28;20229;-62
2022/05/04 02:23:46;;;;;;;6.03;5.53;;;10.90;99.90;;;;;;5015215;28;20226;-62
2022/05/04 02:26:11;;;;;;;4.93;4.43;;;10.90;99.90;;;;;;5011799;28;20230;-62
2022/05/04 02:28:37;;;;;;;7.37;6.60;;;10.90;99.90;;;;;;5006940;28;20258;-62
2022/05/04 02:31:03;;;;;;;6.23;4.90;;;10.90;99.90;;;;;;4997674;28;20606;-62
2022/05/04 02:33:28;;;;;;;8.27;6.40;;;10.90;99.90;;;;;;5015103;28;20273;-62
2022/05/04 02:38:38;;;;;;;8.40;4.80;;;11.00;99.90;;;;;;5015729;28;20436;-62
2022/05/04 02:41:04;;;;;;;6.80;4.63;;;11.00;99.90;;;;;;5014730;28;20203;-62
2022/05/04 02:43:30;;;;;;;5.80;5.30;;;11.00;99.90;;;;;;5015317;28;20206;-62
2022/05/04 02:45:57;;;;;;;5.80;5.20;;;11.00;99.90;;;;;;5015355;28;20581;-62
2022/05/04 02:48:23;;;;;;;5.07;4.65;;;11.00;99.90;;;;;;5015281;28;20258;-61
2022/05/04 02:50:49;;;;;;;5.80;5.30;;;11.10;99.90;;;;;;5015223;28;20592;-62
2022/05/04 02:53:14;;;;;;;5.22;4.80;;;11.10;99.90;;;;;;5014417;28;20438;-62
2022/05/04 02:55:40;;;;;;;6.23;5.60;;;11.10;99.90;;;;;;5015134;28;20541;-62
2022/05/04 02:58:06;;;;;;;5.70;5.20;;;11.10;99.90;;;;;;5015206;28;20167;-62
2022/05/04 03:00:32;;;;;;;7.97;5.17;;;11.10;99.90;;;;;;5014609;28;20179;-62
2022/05/04 03:02:58;;;;;;;5.47;4.63;;;11.20;99.90;;;;;;5014499;28;20470;-62
2022/05/04 03:05:24;;;;;;;7.20;5.30;;;11.10;99.90;;;;;;5013602;28;20184;-61
2022/05/04 03:07:50;;;;;;;6.13;4.10;;;11.20;99.90;;;;;;5013590;28;20477;-61
2022/05/04 03:10:17;;;;;;;4.50;4.07;;;11.20;99.90;;;;;;4995083;28;20168;-61
2022/05/04 03:12:43;;;;;;;6.25;5.45;;;11.30;99.90;;;;;;4994688;28;20411;-63
2022/05/04 03:15:09;;;;;;;5.80;5.32;;;11.20;99.90;;;;;;4994804;28;20708;-61
2022/05/04 03:17:35;;;;;;;6.25;5.65;;;11.30;99.90;;;;;;4994895;28;20177;-61
2022/05/04 03:20:02;;;;;;;6.97;5.43;;;11.30;99.90;;;;;;4995080;28;20185;-61
2022/05/04 03:22:29;;;;;;;7.40;5.80;;;11.30;99.90;;;;;;4994432;28;20171;-61
2022/05/04 03:24:55;;;;;;;6.93;6.25;;;11.30;99.90;;;;;;5014409;28;20281;-62
2022/05/04 03:27:21;;;;;;;5.80;5.20;;;11.40;99.90;;;;;;5014913;28;20539;-62
2022/05/04 03:29:47;;;;;;;13.60;5.53;;;11.40;99.90;;;;;;5014468;28;20177;-62
2022/05/04 03:32:12;;;;;;;5.70;4.83;;;11.40;99.90;;;;;;5013423;28;20248;-60
2022/05/04 03:34:38;;;;;;;5.03;4.57;;;11.30;99.90;;;;;;4994714;28;20229;-62
2022/05/04 03:37:05;;;;;;;6.00;5.40;;;11.20;99.90;;;;;;4994683;28;20179;-63
2022/05/04 03:39:31;;;;;;;6.20;5.60;;;11.20;99.90;;;;;;4994435;28;20207;-62
2022/05/04 03:41:57;;;;;;;5.80;5.30;;;11.20;99.90;;;;;;4994621;28;20218;-62
2022/05/04 03:44:22;;;;;;;6.38;5.78;;;11.30;99.90;;;;;;4994206;28;20195;-62
2022/05/04 03:46:52;;;;;;;5.70;5.20;;;11.30;99.90;;;;;;4994536;28;20603;-62
2022/05/04 03:49:20;;;;;;;6.80;5.68;;;11.30;99.90;;;;;;4994424;28;20180;-61
2022/05/04 03:51:46;;;;;;;7.68;5.18;;;11.30;99.90;;;;;;4994357;28;20176;-62
2022/05/04 03:54:12;;;;;;;5.50;5.00;;;11.20;99.90;;;;;;4993969;28;20184;-62
2022/05/04 03:56:38;;;;;;;5.37;4.30;;;11.20;99.90;;;;;;4996362;28;20430;-62
2022/05/04 03:59:05;;;;;;;7.00;4.50;;;11.20;99.90;;;;;;5014238;28;20266;-62
2022/05/04 04:01:31;;;;;;;7.60;5.68;;;11.20;99.90;;;;;;5013919;28;20184;-62
2022/05/04 04:03:57;;;;;;;6.15;5.20;;;11.20;99.90;;;;;;5013266;28;20198;-62
2022/05/04 04:06:22;;;;;;;5.50;4.73;;;11.20;99.90;;;;;;5013824;28;20297;-62
2022/05/04 04:08:51;;;;;;;6.30;5.20;;;11.20;99.90;;;;;;5013539;28;20666;-62
2022/05/04 04:11:18;;;;;;;6.28;4.50;;;11.20;99.90;;;;;;5013736;28;20524;-61
2022/05/04 04:13:45;;;;;;;6.85;5.93;;;11.20;99.90;;;;;;5012027;28;20237;-62
2022/05/04 04:16:10;;;;;;;8.07;5.78;;;11.30;99.90;;;;;;5013693;28;20176;-62
2022/05/04 04:18:36;;;;;;;5.90;5.43;;;11.20;99.90;;;;;;5013649;28;20263;-62
2022/05/04 04:23:47;;;;;;;7.47;6.65;;;11.30;99.90;;;;;;4994032;28;20261;-61
2022/05/04 04:26:12;;;;;;;7.50;6.60;;;11.30;99.90;;;;;;4994104;28;20203;-61
2022/05/04 04:28:39;;;;;;;6.80;5.47;;;11.40;99.90;;;;;;4994139;28;20171;-62
2022/05/04 04:31:06;;;;;;;6.55;5.45;;;11.40;99.90;;;;;;4999570;28;20217;-62
2022/05/04 04:33:32;;;;;;;5.50;5.00;;;11.40;99.90;;;;;;5013230;28;20553;-62
2022/05/04 04:35:59;;;;;;;5.53;5.03;;;11.50;99.90;;;;;;5013553;28;20186;-62
2022/05/04 04:38:25;;;;;;;5.43;4.93;;;11.50;99.90;;;;;;5013556;28;20179;-62
2022/05/04 04:40:51;;;;;;;6.25;5.63;;;11.60;99.90;;;;;;4998004;28;20194;-62
2022/05/04 04:43:17;;;;;;;7.07;6.37;;;11.60;99.90;;;;;;5002621;28;20203;-62
2022/05/04 04:45:50;;;;;;;6.80;6.10;;;11.50;99.90;;;;;;5013558;28;20234;-62
2022/05/04 04:48:16;;;;;;;5.85;5.22;;;11.50;99.90;;;;;;5013680;28;20557;-62
2022/05/04 04:50:46;;;;;;;5.78;5.20;;;11.60;99.90;;;;;;5001000;28;20184;-62
2022/05/04 04:53:12;;;;;;;5.55;4.95;;;11.60;99.90;;;;;;4997321;28;20191;-62
2022/05/04 04:55:41;;;;;;;7.50;5.28;;;11.60;99.90;;;;;;5013587;28;20179;-61
2022/05/04 04:58:06;;;;;;;5.50;5.00;;;11.70;99.90;;;;;;5017273;28;20182;-62
2022/05/04 05:00:32;;;;;;;6.83;5.03;;;11.70;99.90;;;;;;5017507;28;20629;-62
2022/05/04 05:02:58;;;;;;;7.33;5.50;;;11.80;99.90;;;;;;5016603;28;20536;-62
2022/05/04 05:05:23;;;;;;;4.87;4.47;;;11.80;99.90;;;;;;5010116;28;20175;-64
2022/05/04 05:07:49;;;;;;;8.07;5.20;;;11.80;99.90;;;;;;4999158;28;20485;-63
2022/05/04 05:10:15;;;;;;;4.83;4.43;;;11.90;99.90;;;;;;5008195;28;20271;-62
2022/05/04 05:12:40;;;;;;;4.40;4.03;;;11.90;99.90;;;;;;5000393;28;20180;-62
2022/05/04 05:17:51;;;;;;;4.88;4.38;;;12.10;99.90;;;;;;4998251;28;20186;-62
2022/05/04 05:20:17;;;;;;;6.43;5.83;;;12.20;99.90;;;;;;5012405;28;20616;-63
2022/05/04 05:22:43;;;;;;;4.78;4.35;;;12.20;99.90;;;;;;5000454;28;20545;-62
2022/05/04 05:25:09;;;;;;;4.93;4.53;;;12.20;99.90;;;;;;5016078;28;20200;-62
2022/05/04 05:27:34;;;;;;;6.63;5.33;;;12.30;99.90;;;;;;4997941;28;20232;-63
2022/05/04 05:30:00;;;;;;;6.00;5.50;;;12.30;99.90;;;;;;4997201;28;20198;-64
2022/05/04 05:32:26;;;;;;;4.60;4.30;;;12.30;99.90;;;;;;5000200;28;20263;-62
2022/05/04 05:34:51;;;;;;;4.73;4.23;;;12.40;99.90;;;;;;4996630;28;20243;-62
2022/05/04 05:37:20;;;;;;;6.00;4.60;;;12.40;99.90;;;;;;4996820;28;20674;-63
2022/05/04 05:39:46;;;;;;;4.93;4.53;;;12.50;99.90;;;;;;4996765;28;20188;-61
2022/05/04 05:42:12;;;;;;;4.63;4.22;;;12.60;99.90;;;;;;4996382;28;20407;-62
2022/05/04 05:44:38;;;;;;;6.57;4.37;;;12.70;99.90;;;;;;4997020;28;20569;-61
2022/05/04 05:47:04;;;;;;;5.90;5.03;;;12.80;99.90;;;;;;4997100;28;20459;-62
2022/05/04 05:49:30;;;;;;;5.27;4.57;;;12.90;99.90;;;;;;4997565;28;20189;-62
2022/05/04 05:51:56;;;;;;;4.50;4.10;;;13.10;99.90;;;;;;4997213;28;20916;-62
2022/05/04 05:54:22;;;;;;;7.53;4.57;;;13.20;99.90;;;;;;5012911;28;20250;-62
2022/05/04 05:56:48;;;;;;;6.30;4.40;;;13.30;99.90;;;;;;5016738;28;20911;-62
2022/05/04 05:59:13;;;;;;;4.17;3.87;;;13.40;99.90;;;;;;5016300;28;20201;-61
2022/05/04 06:01:39;;;;;;;4.60;4.23;;;13.50;99.90;;;;;;5016484;28;20405;-61
2022/05/04 06:04:05;;;;;;;5.43;4.50;;;13.60;99.90;;;;;;5016025;28;20198;-62
2022/05/04 06:06:31;;;;;;;5.00;4.10;;;13.70;99.90;;;;;;5016135;28;20195;-61
2022/05/04 06:08:57;;;;;;;4.83;4.40;;;13.80;99.90;;;;;;5015568;28;20472;-61
2022/05/04 06:11:23;;;;;;;3.97;3.67;;;13.90;99.90;;;;;;5016330;28;20401;-62
2022/05/04 06:13:52;;;;;;;5.40;4.90;;;13.90;99.90;;;;;;5015692;28;20445;-61
2022/05/04 06:16:18;;;;;;;4.17;3.80;;;14.00;99.90;;;;;;5016024;28;20256;-61
2022/05/04 06:18:44;;;;;;;4.10;3.77;;;13.90;99.90;;;;;;5015775;28;20413;-62
2022/05/04 06:21:10;;;;;;;4.13;3.80;;;14.00;99.90;;;;;;5016006;28;20459;-62
2022/05/04 06:23:36;;;;;;;5.67;5.10;;;14.10;99.90;;;;;;5000099;28;20561;-62
2022/05/04 06:26:01;;;;;;;4.00;3.60;;;14.10;99.90;;;;;;4996414;28;20210;-62
2022/05/04 06:28:27;;;;;;;4.90;4.47;;;14.10;99.90;;;;;;4996072;28;20541;-61
2022/05/04 06:36:21;;;;;;;4.47;4.07;;;14.30;99.90;;;;;;4993634;28;20452;-62
2022/05/04 06:38:47;;;;;;;4.33;4.03;;;14.40;99.90;;;;;;5014491;28;20437;-62
2022/05/04 06:41:14;;;;;;;5.80;5.20;;;14.40;99.90;;;;;;5015618;28;20179;-61
2022/05/04 06:43:40;;;;;;;10.80;7.57;;;14.30;99.90;;;;;;5014920;28;20991;-61
2022/05/04 06:46:05;;;;;;;6.93;5.53;;;14.30;99.90;;;;;;4994925;28;20972;-61
2022/05/04 06:48:31;;;;;;;4.57;4.17;;;14.30;99.90;;;;;;4995137;28;20489;-61
2022/05/04 06:50:57;;;;;;;4.40;4.00;;;14.30;99.90;;;;;;4995761;28;20262;-62
2022/05/04 06:53:22;;;;;;;5.63;5.13;;;14.40;99.90;;;;;;5003435;28;20305;-61
2022/05/04 06:55:48;;;;;;;5.10;4.60;;;14.50;99.90;;;;;;4995391;28;20705;-61
2022/05/04 06:58:13;;;;;;;5.20;4.70;;;14.50;99.90;;;;;;4995808;28;20266;-62
2022/05/04 07:00:39;;;;;;;7.40;5.23;;;14.40;99.90;;;;;;4995239;28;20186;-61
2022/05/04 07:03:05;;;;;;;7.00;4.97;;;14.50;99.90;;;;;;4993689;28;20557;-62
2022/05/04 07:05:30;;;;;;;5.93;4.00;;;14.50;99.90;;;;;;4995296;28;20190;-63
2022/05/04 07:07:56;;;;;;;4.63;4.13;;;14.50;99.90;;;;;;4995190;28;20205;-64
2022/05/04 07:10:21;;;;;;;7.30;4.50;;;14.70;99.90;;;;;;4994831;28;20175;-62
2022/05/04 07:12:48;;;;;;;5.87;5.37;;;14.80;99.90;;;;;;4994403;28;20198;-63
2022/05/04 07:15:14;;;;;;;6.53;5.93;;;14.90;99.90;;;;;;4994345;28;20283;-62
2022/05/04 07:17:40;;;;;;;5.40;4.90;;;15.00;99.90;;;;;;4994992;28;20493;-62
2022/05/04 07:20:06;;;;;;;4.30;4.00;;;15.20;99.90;;;;;;4994667;28;20194;-62
2022/05/04 07:22:32;;;;;;;4.20;3.80;;;15.30;99.90;;;;;;4993960;28;20556;-62
2022/05/04 07:24:57;;;;;;;6.60;4.67;;;15.50;99.90;;;;;;4994223;28;20409;-63
2022/05/04 07:27:23;;;;;;;4.63;4.20;;;15.70;99.90;;;;;;4994572;28;20240;-62
2022/05/04 07:29:49;;;;;;;4.90;4.40;;;15.90;99.90;;;;;;5004491;28;20180;-63
2022/05/04 07:32:14;;;;;;;4.73;4.23;;;15.90;99.90;;;;;;4994435;28;20568;-62
2022/05/04 07:34:40;;;;;;;5.10;4.60;;;16.00;99.90;;;;;;5004591;28;20213;-62
2022/05/04 07:37:06;;;;;;;4.63;3.63;;;16.20;99.90;;;;;;4994042;28;20174;-65
2022/05/04 07:42:21;;;;;;;6.63;6.03;;;16.40;99.90;;;;;;4994246;28;20915;-65
2022/05/04 07:44:58;;;;;;;7.03;5.17;;;16.50;99.90;;;;;;4994368;28;20781;-62
2022/05/04 07:47:28;;;;;;;4.30;3.90;;;16.70;99.90;;;;;;4993747;28;20439;-62
2022/05/04 07:49:56;;;;;;;4.60;4.20;;;16.80;99.90;;;;;;4993830;28;20418;-60
2022/05/04 07:52:22;;;;;;;6.47;4.40;;;16.90;99.90;;;;;;4992327;28;20411;-64
2022/05/04 07:54:47;;;;;;;4.90;4.30;;;17.00;99.90;;;;;;4994178;28;20427;-63
2022/05/04 07:57:13;;;;;;;5.50;5.00;;;17.10;99.90;;;;;;4994019;28;20181;-63
2022/05/04 07:59:38;;;;;;;5.30;4.40;;;17.10;99.90;;;;;;4994179;28;20533;-62
2022/05/04 08:04:50;;;;;;;4.37;3.90;;;16.80;99.90;;;;;;4977742;28;20216;-63
2022/05/04 08:07:17;;;;;;;5.30;4.40;;;16.90;99.90;;;;;;4992305;28;21036;-62
2022/05/04 08:09:43;;;;;;;4.50;4.03;;;16.90;99.90;;;;;;4992481;28;20410;-63
2022/05/04 08:12:11;;;;;;;5.27;4.27;;;17.00;99.90;;;;;;4992998;28;20416;-62
2022/05/04 08:14:40;;;;;;;4.60;4.20;;;17.00;99.90;;;;;;4992943;28;20434;-61
2022/05/04 08:17:06;;;;;;;5.20;4.70;;;17.00;99.90;;;;;;4993633;28;20766;-61
2022/05/04 08:19:33;;;;;;;3.70;3.40;;;17.10;99.90;;;;;;4993502;28;20388;-62
2022/05/04 08:21:59;;;;;;;4.20;3.87;;;17.20;99.90;;;;;;5002991;28;20514;-61
2022/05/04 08:24:24;;;;;;;3.43;3.23;;;17.30;99.90;;;;;;4992745;28;20525;-62
2022/05/04 08:26:50;;;;;;;4.60;4.20;;;17.40;99.90;;;;;;4989894;28;20262;-62
2022/05/04 08:29:16;;;;;;;4.57;4.17;;;17.50;99.90;;;;;;4993493;28;20183;-62
2022/05/04 08:31:41;;;;;;;4.37;4.00;;;17.70;99.90;;;;;;4993748;28;20504;-63
2022/05/04 08:34:08;;;;;;;6.80;4.80;;;17.80;99.90;;;;;;4992089;28;20266;-62
2022/05/04 08:36:37;;;;;;;11.83;4.93;;;18.10;99.90;;;;;;4993506;28;20176;-62
2022/05/04 08:39:05;;;;;;;5.43;4.10;;;18.30;99.90;;;;;;4993905;28;20479;-63
2022/05/04 08:41:33;;;;;;;4.13;3.73;;;18.50;99.90;;;;;;4992327;28;20909;-63
2022/05/04 08:43:59;;;;;;;5.17;4.67;;;18.80;99.90;;;;;;4993294;28;20470;-63
2022/05/04 08:46:26;;;;;;;5.60;4.83;;;19.00;99.90;;;;;;4993919;28;20562;-62
2022/05/04 08:48:52;;;;;;;4.83;4.43;;;19.40;99.90;;;;;;4999422;28;20802;-63
2022/05/04 08:51:19;;;;;;;7.77;5.30;;;20.10;99.90;;;;;;4993597;28;20439;-63
2022/05/04 08:53:45;;;;;;;4.23;3.93;;;21.10;99.90;;;;;;4993292;28;20496;-64
2022/05/04 08:56:13;;;;;;;5.87;5.13;;;21.60;99.90;;;;;;4993772;28;20403;-63
2022/05/04 08:58:39;;;;;;;5.20;4.70;;;21.70;99.90;;;;;;4992907;28;20426;-63
2022/05/04 09:01:05;;;;;;;5.33;4.83;;;21.70;99.30;;;;;;4993240;28;20414;-63
2022/05/04 09:03:32;;;;;;;7.80;5.43;;;21.70;99.90;;;;;;4992706;28;20521;-62
2022/05/04 09:05:58;;;;;;;5.20;4.80;;;21.60;99.20;;;;;;4992664;28;20202;-63
2022/05/04 09:08:24;;;;;;;7.03;4.77;;;21.40;99.40;;;;;;4993115;28;20424;-63
2022/05/04 09:10:50;;;;;;;5.40;4.67;;;21.50;99.90;;;;;;4992952;28;20426;-63
2022/05/04 09:13:18;;;;;;;5.17;4.73;;;21.60;99.90;;;;;;4992692;28;20262;-64
2022/05/04 09:15:43;;;;;;;6.07;5.57;;;21.60;99.80;;;;;;4992888;28;20282;-62
2022/05/04 09:18:16;;;;;;;5.67;5.17;;;21.20;99.90;;;;;;4992807;28;20393;-63
2022/05/04 09:20:52;;;;;;;5.73;5.23;;;21.00;99.90;;;;;;4993581;28;20187;-63
2022/05/04 09:23:21;;;;;;;5.17;4.67;;;20.90;99.90;;;;;;4992996;28;20404;-62
2022/05/04 09:25:53;;;;;;;7.47;5.50;;;20.70;99.90;;;;;;4992306;28;20472;-63
2022/05/04 09:28:20;;;;;;;5.13;4.70;;;20.40;99.90;;;;;;4993212;28;20423;-62
2022/05/04 09:30:51;;;;;;;5.40;4.90;;;20.40;99.90;;;;;;4993257;28;20768;-62
2022/05/04 09:33:19;;;;;;;5.67;5.17;;;20.20;99.90;;;;;;4993188;28;20408;-62
2022/05/04 09:35:45;;;;;;;5.50;4.87;;;20.00;99.90;;;;;;4993403;28;20441;-62
2022/05/04 09:46:43;;;;;;;5.53;4.70;;;19.70;99.90;;;;;;4997105;28;20571;-62
2022/05/04 09:49:11;;;;;;;7.20;5.80;;;19.50;99.90;;;;;;4997012;28;20506;-62
2022/05/04 09:51:38;;;;;;;6.93;5.90;;;19.50;99.90;;;;;;4996895;28;20896;-62
2022/05/04 09:54:16;;;;;;;6.60;6.00;;;19.40;99.90;;;;;;5012939;28;20965;-64
2022/05/04 09:56:44;;;;;;;7.57;6.00;;;19.50;99.90;;;;;;5016553;28;20396;-62
2022/05/04 09:59:14;;;;;;;7.50;6.80;;;19.80;99.90;;;;;;5016382;28;20483;-62
2022/05/04 10:01:41;;;;;;;6.60;5.90;;;19.80;99.90;;;;;;5016120;28;20535;-61
2022/05/04 10:04:08;;;;;;;7.50;5.60;;;19.90;99.90;;;;;;5015810;28;20436;-63
2022/05/04 10:06:34;;;;;;;7.37;6.40;;;20.10;99.90;;;;;;5015880;28;20433;-63
2022/05/04 10:09:02;;;;;;;7.60;6.00;;;20.60;99.90;;;;;;5015736;28;20421;-63
2022/05/04 10:11:30;;;;;;;6.93;6.23;;;21.10;99.90;;;;;;5016047;28;20402;-63
2022/05/04 10:13:58;;;;;;;6.60;5.97;;;21.70;99.90;;;;;;5015626;28;20404;-62
2022/05/04 10:16:24;;;;;;;7.67;6.20;;;22.30;99.90;;;;;;5016076;28;20746;-64
2022/05/04 10:18:52;;;;;;;7.23;6.63;;;22.60;99.90;;;;;;5015923;28;20384;-63
2022/05/04 10:21:19;;;;;;;7.40;6.10;;;22.70;99.90;;;;;;5016111;28;20431;-63
2022/05/04 10:23:53;;;;;;;7.67;6.53;;;22.70;99.90;;;;;;4996613;28;20423;-63
2022/05/04 10:26:31;;;;;;;7.73;7.03;;;22.60;99.90;;;;;;4995044;28;20835;-63
2022/05/04 10:31:56;;;;;;;5.50;5.00;;;22.70;99.90;;;;;;4996407;28;20467;-64
2022/05/04 10:34:22;;;;;;;6.73;5.97;;;23.00;99.90;;;;;;4995735;28;20425;-63
2022/05/04 10:36:52;;;;;;;6.50;5.90;;;23.70;99.90;;;;;;4995936;28;20389;-63
2022/05/04 10:39:21;;;;;;;6.20;5.67;;;24.60;99.90;;;;;;4996224;28;20193;-62
2022/05/04 10:41:46;;;;;;;7.03;6.33;;;25.20;99.40;;;;;;4996158;28;20877;-63
2022/05/04 10:44:12;;;;;;;6.27;5.67;;;25.80;98.50;;;;;;4995475;28;20410;-63
2022/05/04 10:46:40;;;;;;;7.07;6.47;;;26.20;96.70;;;;;;5011948;28;20211;-63
2022/05/04 10:49:10;;;;;;;7.60;6.90;;;26.40;96.00;;;;;;5014624;28;20186;-63
2022/05/04 10:51:38;;;;;;;7.47;6.77;;;26.30;95.00;;;;;;5015571;28;20393;-63
2022/05/04 10:54:14;;;;;;;7.30;6.57;;;26.10;95.60;;;;;;5014879;28;20432;-63
2022/05/04 10:56:45;;;;;;;8.60;6.83;;;26.00;95.90;;;;;;5015200;28;20417;-62
2022/05/04 10:59:12;;;;;;;7.80;7.10;;;25.80;95.80;;;;;;5015369;28;20369;-64
2022/05/04 11:01:39;;;;;;;7.87;7.00;;;25.70;95.40;;;;;;5015037;28;20396;-64
2022/05/04 11:04:11;;;;;;;6.77;6.10;;;25.60;95.60;;;;;;5005481;28;20417;-61
2022/05/04 11:07:03;;;;;;;6.53;5.83;;;25.70;96.40;;;;;;4995511;28;20476;-62
2022/05/04 11:09:37;;;;;;;7.73;7.03;;;25.90;96.10;;;;;;4984524;28;20419;-63
2022/05/04 11:12:04;;;;;;;6.80;6.10;;;25.80;95.00;;;;;;4995315;28;20410;-63
2022/05/04 11:14:33;;;;;;;6.83;6.23;;;25.20;93.70;;;;;;4994833;28;20880;-63
2022/05/04 11:17:00;;;;;;;6.20;5.50;;;24.80;94.00;;;;;;4995055;28;20389;-63
2022/05/04 11:19:28;;;;;;;6.90;6.07;;;24.20;94.90;;;;;;4995341;28;20496;-62
2022/05/04 11:21:56;;;;;;;6.57;5.97;;;23.70;95.40;;;;;;4995318;28;20403;-62
2022/05/04 11:24:25;;;;;;;6.60;5.37;;;23.50;96.90;;;;;;4994725;28;20445;-62
2022/05/04 11:26:52;;;;;;;5.43;5.00;;;23.60;98.00;;;;;;4995067;28;20453;-62
2022/05/04 11:29:23;;;;;;;6.10;5.50;;;23.80;98.10;;;;;;4998456;28;20784;-63
2022/05/04 11:31:54;;;;;;;6.13;5.60;;;23.80;95.60;;;;;;5014470;28;20415;-63
2022/05/04 11:34:32;;;;;;;6.53;5.93;;;23.70;94.70;;;;;;5013964;28;20484;-62
2022/05/04 11:37:01;;;;;;;6.27;5.63;;;23.40;97.10;;;;;;5014370;28;20434;-63
2022/05/04 11:39:29;;;;;;;5.83;5.30;;;23.30;96.30;;;;;;4995275;28;20447;-64
2022/05/04 11:42:02;;;;;;;4.37;4.03;;;23.30;96.20;;;;;;4994535;28;20407;-64
2022/05/04 11:44:29;;;;;;;5.57;5.07;;;23.30;96.90;;;;;;4993961;28;20430;-63
2022/05/04 11:46:56;;;;;;;8.10;4.97;;;23.30;97.50;;;;;;4994105;28;20461;-63
2022/05/04 11:49:25;;;;;;;6.00;5.50;;;23.00;95.90;;;;;;4994798;28;20422;-63
2022/05/04 11:51:53;;;;;;;7.90;6.73;;;22.80;96.00;;;;;;4994842;28;20868;-63
2022/05/04 11:54:19;;;;;;;8.67;5.43;;;22.70;96.20;;;;;;5013243;28;20442;-65
2022/05/04 11:56:45;;;;;;;5.37;4.97;;;22.50;95.60;;;;;;5014147;28;20392;-63
2022/05/04 11:59:11;;;;;;;4.67;4.27;;;22.40;95.10;;;;;;5013750;28;20418;-63
2022/05/04 12:01:38;;;;;;;6.23;5.47;;;22.40;97.00;;;;;;5013863;28;20417;-63
2022/05/04 12:04:05;;;;;;;4.93;4.50;;;22.60;96.50;;;;;;5013359;28;20198;-63
2022/05/04 12:06:32;;;;;;;5.77;5.27;;;22.80;96.10;;;;;;5013893;28;20428;-63
2022/05/04 12:08:58;;;;;;;3.60;3.33;;;23.00;96.90;;;;;;4994931;28;20582;-63
2022/05/04 12:11:24;;;;;;;4.97;3.97;;;23.30;95.50;;;;;;4994288;28;20509;-62
2022/05/04 12:13:50;;;;;;;4.20;3.80;;;23.60;95.40;;;;;;4993806;28;20981;-62
2022/05/04 12:16:16;;;;;;;4.13;3.83;;;23.70;94.50;;;;;;4994214;28;20424;-62
2022/05/04 12:18:42;;;;;;;6.30;4.93;;;23.80;93.40;;;;;;4994157;28;20887;-62
2022/05/04 12:21:14;;;;;;;4.20;3.90;;;23.70;93.50;;;;;;4993968;28;20393;-62
2022/05/04 12:23:47;;;;;;;5.13;4.30;;;23.60;93.90;;;;;;5011719;28;20431;-65
2022/05/04 12:26:13;;;;;;;4.73;4.33;;;23.60;92.50;;;;;;5013737;28;20439;-65
2022/05/04 12:28:42;;;;;;;3.47;3.17;;;23.40;93.00;;;;;;5013608;28;20449;-61
2022/05/04 12:33:56;;;;;;;3.87;3.33;;;23.60;93.20;;;;;;5013366;28;20441;-62
2022/05/04 12:36:26;;;;;;;7.10;5.87;;;23.60;90.90;;;;;;5011181;28;20385;-62
2022/05/04 12:38:53;;;;;;;3.47;3.23;;;23.60;91.20;;;;;;4993850;28;20402;-61
2022/05/04 12:41:24;;;;;;;3.03;2.83;;;23.60;89.00;;;;;;4994025;28;20407;-62
2022/05/04 12:43:51;;;;;;;3.27;2.93;;;23.70;86.60;;;;;;4993338;28;20934;-61
2022/05/04 12:46:19;;;;;;;3.00;2.80;;;23.80;87.00;;;;;;4993793;28;20915;-62
2022/05/04 12:48:47;;;;;;;2.77;2.60;;;23.80;85.50;;;;;;4993853;28;20389;-62
2022/05/04 12:51:16;;;;;;;3.23;3.03;;;23.70;89.20;;;;;;4993621;28;20440;-61
2022/05/04 12:53:45;;;;;;;3.20;3.00;;;23.70;90.40;;;;;;5005690;28;20557;-61
2022/05/04 12:58:55;;;;;;;3.40;2.50;;;23.30;87.70;;;;;;5013625;28;20380;-61
2022/05/04 13:01:23;;;;;;;2.70;2.50;;;23.20;87.70;;;;;;5013185;28;20413;-62
2022/05/04 13:03:50;;;;;;;3.60;3.30;;;23.10;90.00;;;;;;5012876;28;20621;-63
2022/05/04 13:06:19;;;;;;;3.03;2.83;;;22.80;90.20;;;;;;5013126;28;20500;-63
2022/05/04 13:08:46;;;;;;;3.03;2.80;;;22.60;90.90;;;;;;4997320;28;20518;-62
2022/05/04 13:11:12;;;;;;;3.80;3.50;;;22.40;90.80;;;;;;4993479;28;20414;-62
2022/05/04 13:13:38;;;;;;;6.30;5.10;;;22.50;91.30;;;;;;4996801;28;20586;-62
2022/05/04 13:16:04;;;;;;;7.37;4.77;;;22.50;91.50;;;;;;4997342;28;20493;-63
2022/05/04 13:18:30;;;;;;;4.93;3.90;;;22.50;91.50;;;;;;4997225;28;20171;-62
2022/05/04 13:20:55;;;;;;;5.10;4.70;;;22.40;91.80;;;;;;4997454;28;20381;-62
2022/05/04 13:23:21;;;;;;;4.23;3.83;;;22.40;91.90;;;;;;5010924;28;20202;-62